sensor_id;sensor_type;location;lat;lon;timestamp;P1;durP1;ratioP1;P2;durP2;ratioP2
77430;SDS011;66498;48.564;19.272;2024-03-29T00:01:15;0.90;;;0.90;;
77430;SDS011;66498;48.564;19.272;2024-03-29T00:03:40;0.70;;;0.70;;
77430;SDS011;66498;48.564;19.272;2024-03-29T00:06:06;0.93;;;0.90;;
77430;SDS011;66498;48.564;19.272;2024-03-29T00:08:32;1.25;;;1.15;;
77430;SDS011;66498;48.564;19.272;2024-03-29T00:10:57;0.95;;;0.95;;
77430;SDS011;66498;48.564;19.272;2024-03-29T00:13:22;1.08;;;1.00;;
77430;SDS011;66498;48.564;19.272;2024-03-29T00:15:48;1.30;;;1.20;;
77430;SDS011;66498;48.564;19.272;2024-03-29T00:18:13;1.63;;;1.30;;
77430;SDS011;66498;48.564;19.272;2024-03-29T00:20:38;1.52;;;1.40;;
77430;SDS011;66498;48.564;19.272;2024-03-29T00:23:04;1.40;;;1.30;;
77430;SDS011;66498;48.564;19.272;2024-03-29T00:25:29;1.20;;;1.10;;
77430;SDS011;66498;48.564;19.272;2024-03-29T00:27:54;1.33;;;1.23;;
77430;SDS011;66498;48.564;19.272;2024-03-29T00:30:20;1.35;;;1.25;;
77430;SDS011;66498;48.564;19.272;2024-03-29T00:32:45;1.50;;;1.40;;
77430;SDS011;66498;48.564;19.272;2024-03-29T00:35:11;1.63;;;1.10;;
77430;SDS011;66498;48.564;19.272;2024-03-29T00:37:36;1.00;;;1.00;;
77430;SDS011;66498;48.564;19.272;2024-03-29T00:40:01;1.55;;;1.20;;
77430;SDS011;66498;48.564;19.272;2024-03-29T00:42:27;1.00;;;1.00;;
77430;SDS011;66498;48.564;19.272;2024-03-29T00:44:53;1.20;;;1.10;;
77430;SDS011;66498;48.564;19.272;2024-03-29T00:47:18;0.90;;;0.90;;
77430;SDS011;66498;48.564;19.272;2024-03-29T00:49:43;0.98;;;0.95;;
77430;SDS011;66498;48.564;19.272;2024-03-29T00:52:09;1.13;;;1.02;;
77430;SDS011;66498;48.564;19.272;2024-03-29T00:54:34;1.17;;;1.10;;
77430;SDS011;66498;48.564;19.272;2024-03-29T00:57:00;2.25;;;1.30;;
77430;SDS011;66498;48.564;19.272;2024-03-29T00:59:25;1.48;;;1.30;;
77430;SDS011;66498;48.564;19.272;2024-03-29T01:01:50;1.40;;;1.30;;
77430;SDS011;66498;48.564;19.272;2024-03-29T01:04:16;1.42;;;1.20;;
77430;SDS011;66498;48.564;19.272;2024-03-29T01:06:42;1.30;;;1.10;;
77430;SDS011;66498;48.564;19.272;2024-03-29T01:09:10;1.58;;;1.20;;
77430;SDS011;66498;48.564;19.272;2024-03-29T01:11:39;1.90;;;1.50;;
77430;SDS011;66498;48.564;19.272;2024-03-29T01:14:05;3.10;;;2.30;;
77430;SDS011;66498;48.564;19.272;2024-03-29T01:16:31;3.55;;;2.70;;
77430;SDS011;66498;48.564;19.272;2024-03-29T01:18:57;3.88;;;2.88;;
77430;SDS011;66498;48.564;19.272;2024-03-29T01:21:23;4.15;;;3.05;;
77430;SDS011;66498;48.564;19.272;2024-03-29T01:23:49;5.25;;;3.58;;
77430;SDS011;66498;48.564;19.272;2024-03-29T01:26:14;4.63;;;2.95;;
77430;SDS011;66498;48.564;19.272;2024-03-29T01:28:42;4.28;;;2.85;;
77430;SDS011;66498;48.564;19.272;2024-03-29T01:31:07;4.25;;;1.95;;
77430;SDS011;66498;48.564;19.272;2024-03-29T01:33:33;2.50;;;1.63;;
77430;SDS011;66498;48.564;19.272;2024-03-29T01:36:01;1.88;;;1.42;;
77430;SDS011;66498;48.564;19.272;2024-03-29T01:38:27;1.52;;;1.42;;
77430;SDS011;66498;48.564;19.272;2024-03-29T01:40:52;1.60;;;1.50;;
77430;SDS011;66498;48.564;19.272;2024-03-29T01:43:17;1.73;;;1.42;;
77430;SDS011;66498;48.564;19.272;2024-03-29T01:45:44;1.70;;;1.60;;
77430;SDS011;66498;48.564;19.272;2024-03-29T01:48:13;1.55;;;1.30;;
77430;SDS011;66498;48.564;19.272;2024-03-29T01:50:41;1.60;;;1.50;;
77430;SDS011;66498;48.564;19.272;2024-03-29T01:53:07;1.63;;;1.50;;
77430;SDS011;66498;48.564;19.272;2024-03-29T01:55:33;1.90;;;1.50;;
77430;SDS011;66498;48.564;19.272;2024-03-29T01:58:00;1.70;;;1.60;;
77430;SDS011;66498;48.564;19.272;2024-03-29T02:00:27;1.50;;;1.40;;
77430;SDS011;66498;48.564;19.272;2024-03-29T02:02:53;1.50;;;1.40;;
77430;SDS011;66498;48.564;19.272;2024-03-29T02:05:19;2.03;;;1.60;;
77430;SDS011;66498;48.564;19.272;2024-03-29T02:07:45;1.60;;;1.40;;
77430;SDS011;66498;48.564;19.272;2024-03-29T02:10:14;1.60;;;1.50;;
77430;SDS011;66498;48.564;19.272;2024-03-29T02:12:40;2.20;;;1.70;;
77430;SDS011;66498;48.564;19.272;2024-03-29T02:15:06;2.22;;;1.65;;
77430;SDS011;66498;48.564;19.272;2024-03-29T02:17:32;2.17;;;1.60;;
77430;SDS011;66498;48.564;19.272;2024-03-29T02:19:58;4.97;;;2.90;;
77430;SDS011;66498;48.564;19.272;2024-03-29T02:22:24;1.88;;;1.70;;
77430;SDS011;66498;48.564;19.272;2024-03-29T02:24:50;1.98;;;1.63;;
77430;SDS011;66498;48.564;19.272;2024-03-29T02:27:17;1.73;;;1.63;;
77430;SDS011;66498;48.564;19.272;2024-03-29T02:29:42;1.83;;;1.70;;
77430;SDS011;66498;48.564;19.272;2024-03-29T02:32:08;1.70;;;1.60;;
77430;SDS011;66498;48.564;19.272;2024-03-29T02:34:33;2.50;;;1.83;;
77430;SDS011;66498;48.564;19.272;2024-03-29T02:36:59;2.47;;;1.90;;
77430;SDS011;66498;48.564;19.272;2024-03-29T02:39:24;1.90;;;1.80;;
77430;SDS011;66498;48.564;19.272;2024-03-29T02:41:50;2.58;;;2.28;;
77430;SDS011;66498;48.564;19.272;2024-03-29T02:44:16;2.28;;;2.08;;
77430;SDS011;66498;48.564;19.272;2024-03-29T02:46:41;2.80;;;1.75;;
77430;SDS011;66498;48.564;19.272;2024-03-29T02:49:07;2.20;;;2.00;;
77430;SDS011;66498;48.564;19.272;2024-03-29T02:51:34;2.70;;;2.08;;
77430;SDS011;66498;48.564;19.272;2024-03-29T02:53:59;3.33;;;2.10;;
77430;SDS011;66498;48.564;19.272;2024-03-29T02:56:24;2.70;;;2.22;;
77430;SDS011;66498;48.564;19.272;2024-03-29T02:58:52;3.80;;;2.30;;
77430;SDS011;66498;48.564;19.272;2024-03-29T03:01:17;2.50;;;2.30;;
77430;SDS011;66498;48.564;19.272;2024-03-29T03:03:43;2.40;;;2.20;;
77430;SDS011;66498;48.564;19.272;2024-03-29T03:06:08;2.97;;;2.60;;
77430;SDS011;66498;48.564;19.272;2024-03-29T03:08:34;3.25;;;2.70;;
77430;SDS011;66498;48.564;19.272;2024-03-29T03:11:19;2.90;;;2.60;;
77430;SDS011;66498;48.564;19.272;2024-03-29T03:13:45;4.20;;;3.10;;
77430;SDS011;66498;48.564;19.272;2024-03-29T03:16:10;3.60;;;2.75;;
77430;SDS011;66498;48.564;19.272;2024-03-29T03:18:36;2.75;;;2.47;;
77430;SDS011;66498;48.564;19.272;2024-03-29T03:21:01;2.95;;;2.30;;
77430;SDS011;66498;48.564;19.272;2024-03-29T03:23:27;3.40;;;2.40;;
77430;SDS011;66498;48.564;19.272;2024-03-29T03:25:53;4.03;;;2.40;;
77430;SDS011;66498;48.564;19.272;2024-03-29T03:28:19;3.10;;;2.20;;
77430;SDS011;66498;48.564;19.272;2024-03-29T03:30:45;3.33;;;2.20;;
77430;SDS011;66498;48.564;19.272;2024-03-29T03:33:10;2.75;;;1.98;;
77430;SDS011;66498;48.564;19.272;2024-03-29T03:35:36;2.65;;;2.10;;
77430;SDS011;66498;48.564;19.272;2024-03-29T03:38:01;1.92;;;1.80;;
77430;SDS011;66498;48.564;19.272;2024-03-29T03:40:27;2.03;;;1.83;;
77430;SDS011;66498;48.564;19.272;2024-03-29T03:42:52;2.53;;;1.90;;
77430;SDS011;66498;48.564;19.272;2024-03-29T03:45:17;2.22;;;1.83;;
77430;SDS011;66498;48.564;19.272;2024-03-29T03:47:43;2.35;;;1.80;;
77430;SDS011;66498;48.564;19.272;2024-03-29T03:50:08;1.90;;;1.80;;
77430;SDS011;66498;48.564;19.272;2024-03-29T03:52:34;2.35;;;2.00;;
77430;SDS011;66498;48.564;19.272;2024-03-29T03:54:59;2.00;;;1.90;;
77430;SDS011;66498;48.564;19.272;2024-03-29T03:57:25;2.10;;;1.90;;
77430;SDS011;66498;48.564;19.272;2024-03-29T03:59:50;2.28;;;1.70;;
77430;SDS011;66498;48.564;19.272;2024-03-29T04:02:15;1.73;;;1.63;;
77430;SDS011;66498;48.564;19.272;2024-03-29T04:04:41;1.70;;;1.60;;
77430;SDS011;66498;48.564;19.272;2024-03-29T04:07:06;2.45;;;1.77;;
77430;SDS011;66498;48.564;19.272;2024-03-29T04:09:32;1.90;;;1.80;;
77430;SDS011;66498;48.564;19.272;2024-03-29T04:11:57;2.20;;;2.00;;
77430;SDS011;66498;48.564;19.272;2024-03-29T04:14:22;1.85;;;1.70;;
77430;SDS011;66498;48.564;19.272;2024-03-29T04:16:48;1.80;;;1.70;;
77430;SDS011;66498;48.564;19.272;2024-03-29T04:19:13;2.83;;;1.90;;
77430;SDS011;66498;48.564;19.272;2024-03-29T04:21:38;3.03;;;1.70;;
77430;SDS011;66498;48.564;19.272;2024-03-29T04:24:04;1.98;;;1.80;;
77430;SDS011;66498;48.564;19.272;2024-03-29T04:26:32;1.85;;;1.67;;
77430;SDS011;66498;48.564;19.272;2024-03-29T04:28:58;2.50;;;1.90;;
77430;SDS011;66498;48.564;19.272;2024-03-29T04:31:23;2.47;;;2.05;;
77430;SDS011;66498;48.564;19.272;2024-03-29T04:33:48;2.20;;;2.00;;
77430;SDS011;66498;48.564;19.272;2024-03-29T04:36:14;2.28;;;1.85;;
77430;SDS011;66498;48.564;19.272;2024-03-29T04:38:39;2.30;;;1.92;;
77430;SDS011;66498;48.564;19.272;2024-03-29T04:41:05;2.30;;;2.10;;
77430;SDS011;66498;48.564;19.272;2024-03-29T04:43:30;2.20;;;2.00;;
77430;SDS011;66498;48.564;19.272;2024-03-29T04:46:09;2.60;;;2.40;;
77430;SDS011;66498;48.564;19.272;2024-03-29T04:48:36;2.40;;;2.20;;
77430;SDS011;66498;48.564;19.272;2024-03-29T04:51:01;2.63;;;2.22;;
77430;SDS011;66498;48.564;19.272;2024-03-29T04:53:27;2.30;;;2.10;;
77430;SDS011;66498;48.564;19.272;2024-03-29T04:55:53;2.40;;;2.00;;
77430;SDS011;66498;48.564;19.272;2024-03-29T04:58:25;2.20;;;2.00;;
77430;SDS011;66498;48.564;19.272;2024-03-29T05:00:51;2.17;;;1.98;;
77430;SDS011;66498;48.564;19.272;2024-03-29T05:03:17;2.35;;;2.15;;
77430;SDS011;66498;48.564;19.272;2024-03-29T05:05:43;3.00;;;2.38;;
77430;SDS011;66498;48.564;19.272;2024-03-29T05:08:09;3.67;;;2.50;;
77430;SDS011;66498;48.564;19.272;2024-03-29T05:10:34;4.35;;;3.55;;
77430;SDS011;66498;48.564;19.272;2024-03-29T05:13:00;4.97;;;3.50;;
77430;SDS011;66498;48.564;19.272;2024-03-29T05:15:26;4.55;;;3.80;;
77430;SDS011;66498;48.564;19.272;2024-03-29T05:17:51;4.72;;;3.78;;
77430;SDS011;66498;48.564;19.272;2024-03-29T05:20:18;4.20;;;3.40;;
77430;SDS011;66498;48.564;19.272;2024-03-29T05:22:44;3.80;;;3.17;;
77430;SDS011;66498;48.564;19.272;2024-03-29T05:25:09;4.15;;;3.45;;
77430;SDS011;66498;48.564;19.272;2024-03-29T05:27:34;5.00;;;4.15;;
77430;SDS011;66498;48.564;19.272;2024-03-29T05:30:00;4.43;;;3.78;;
77430;SDS011;66498;48.564;19.272;2024-03-29T05:32:26;4.93;;;3.78;;
77430;SDS011;66498;48.564;19.272;2024-03-29T05:34:51;4.78;;;3.65;;
77430;SDS011;66498;48.564;19.272;2024-03-29T05:37:16;4.18;;;3.40;;
77430;SDS011;66498;48.564;19.272;2024-03-29T05:39:43;4.63;;;3.50;;
77430;SDS011;66498;48.564;19.272;2024-03-29T05:42:08;3.47;;;3.17;;
77430;SDS011;66498;48.564;19.272;2024-03-29T05:44:35;4.32;;;3.10;;
77430;SDS011;66498;48.564;19.272;2024-03-29T05:47:01;3.75;;;3.30;;
77430;SDS011;66498;48.564;19.272;2024-03-29T05:49:29;3.50;;;3.10;;
77430;SDS011;66498;48.564;19.272;2024-03-29T05:51:55;3.20;;;2.90;;
77430;SDS011;66498;48.564;19.272;2024-03-29T05:54:20;3.33;;;3.03;;
77430;SDS011;66498;48.564;19.272;2024-03-29T05:56:47;3.17;;;2.63;;
77430;SDS011;66498;48.564;19.272;2024-03-29T05:59:13;3.38;;;2.70;;
77430;SDS011;66498;48.564;19.272;2024-03-29T06:01:38;3.00;;;2.70;;
77430;SDS011;66498;48.564;19.272;2024-03-29T06:04:04;2.42;;;2.22;;
77430;SDS011;66498;48.564;19.272;2024-03-29T06:06:39;2.80;;;2.50;;
77430;SDS011;66498;48.564;19.272;2024-03-29T06:09:04;3.15;;;2.85;;
77430;SDS011;66498;48.564;19.272;2024-03-29T06:11:30;3.75;;;3.00;;
77430;SDS011;66498;48.564;19.272;2024-03-29T06:13:56;4.07;;;3.05;;
77430;SDS011;66498;48.564;19.272;2024-03-29T06:16:23;3.65;;;3.17;;
77430;SDS011;66498;48.564;19.272;2024-03-29T06:19:09;3.47;;;3.15;;
77430;SDS011;66498;48.564;19.272;2024-03-29T06:21:34;4.38;;;3.45;;
77430;SDS011;66498;48.564;19.272;2024-03-29T06:24:11;4.80;;;3.75;;
77430;SDS011;66498;48.564;19.272;2024-03-29T06:26:37;4.57;;;3.10;;
77430;SDS011;66498;48.564;19.272;2024-03-29T06:29:03;5.22;;;3.88;;
77430;SDS011;66498;48.564;19.272;2024-03-29T06:31:29;5.30;;;3.65;;
77430;SDS011;66498;48.564;19.272;2024-03-29T06:33:54;4.47;;;3.55;;
77430;SDS011;66498;48.564;19.272;2024-03-29T06:36:20;4.03;;;3.50;;
77430;SDS011;66498;48.564;19.272;2024-03-29T06:38:45;4.10;;;3.60;;
77430;SDS011;66498;48.564;19.272;2024-03-29T06:41:11;4.38;;;3.78;;
77430;SDS011;66498;48.564;19.272;2024-03-29T06:43:37;5.82;;;4.03;;
77430;SDS011;66498;48.564;19.272;2024-03-29T06:46:02;5.90;;;4.30;;
77430;SDS011;66498;48.564;19.272;2024-03-29T06:48:29;5.05;;;4.50;;
77430;SDS011;66498;48.564;19.272;2024-03-29T06:50:56;5.35;;;4.72;;
77430;SDS011;66498;48.564;19.272;2024-03-29T06:53:22;5.10;;;4.25;;
77430;SDS011;66498;48.564;19.272;2024-03-29T06:55:48;4.45;;;4.05;;
77430;SDS011;66498;48.564;19.272;2024-03-29T06:58:14;4.35;;;3.40;;
77430;SDS011;66498;48.564;19.272;2024-03-29T07:00:40;3.88;;;3.40;;
77430;SDS011;66498;48.564;19.272;2024-03-29T07:03:05;3.80;;;3.30;;
77430;SDS011;66498;48.564;19.272;2024-03-29T07:05:32;3.65;;;3.08;;
77430;SDS011;66498;48.564;19.272;2024-03-29T07:07:57;5.10;;;3.22;;
77430;SDS011;66498;48.564;19.272;2024-03-29T07:10:24;5.30;;;3.10;;
77430;SDS011;66498;48.564;19.272;2024-03-29T07:12:49;3.80;;;3.10;;
77430;SDS011;66498;48.564;19.272;2024-03-29T07:15:15;4.60;;;3.42;;
77430;SDS011;66498;48.564;19.272;2024-03-29T07:17:40;3.42;;;3.13;;
77430;SDS011;66498;48.564;19.272;2024-03-29T07:20:08;3.58;;;2.80;;
77430;SDS011;66498;48.564;19.272;2024-03-29T07:22:34;3.35;;;2.85;;
77430;SDS011;66498;48.564;19.272;2024-03-29T07:24:59;4.15;;;3.17;;
77430;SDS011;66498;48.564;19.272;2024-03-29T07:27:25;2.70;;;2.50;;
77430;SDS011;66498;48.564;19.272;2024-03-29T07:29:52;2.50;;;2.30;;
77430;SDS011;66498;48.564;19.272;2024-03-29T07:32:18;3.25;;;2.53;;
77430;SDS011;66498;48.564;19.272;2024-03-29T07:34:44;2.30;;;2.10;;
77430;SDS011;66498;48.564;19.272;2024-03-29T07:37:09;2.55;;;2.15;;
77430;SDS011;66498;48.564;19.272;2024-03-29T07:39:40;2.58;;;2.17;;
77430;SDS011;66498;48.564;19.272;2024-03-29T07:42:06;2.20;;;2.00;;
77430;SDS011;66498;48.564;19.272;2024-03-29T07:44:33;3.53;;;2.20;;
77430;SDS011;66498;48.564;19.272;2024-03-29T07:46:58;2.20;;;2.00;;
77430;SDS011;66498;48.564;19.272;2024-03-29T07:49:23;2.88;;;2.17;;
77430;SDS011;66498;48.564;19.272;2024-03-29T07:51:49;2.40;;;2.17;;
77430;SDS011;66498;48.564;19.272;2024-03-29T07:54:14;2.20;;;2.00;;
77430;SDS011;66498;48.564;19.272;2024-03-29T07:56:40;2.42;;;2.10;;
77430;SDS011;66498;48.564;19.272;2024-03-29T07:59:06;2.13;;;1.92;;
77430;SDS011;66498;48.564;19.272;2024-03-29T08:01:31;2.20;;;2.00;;
77430;SDS011;66498;48.564;19.272;2024-03-29T08:03:56;2.13;;;1.90;;
77430;SDS011;66498;48.564;19.272;2024-03-29T08:06:22;2.20;;;1.60;;
77430;SDS011;66498;48.564;19.272;2024-03-29T08:08:48;2.13;;;1.90;;
77430;SDS011;66498;48.564;19.272;2024-03-29T08:11:15;1.85;;;1.70;;
77430;SDS011;66498;48.564;19.272;2024-03-29T08:13:41;2.75;;;1.85;;
77430;SDS011;66498;48.564;19.272;2024-03-29T08:16:06;1.50;;;1.35;;
77430;SDS011;66498;48.564;19.272;2024-03-29T08:18:32;1.90;;;1.50;;
77430;SDS011;66498;48.564;19.272;2024-03-29T08:20:58;2.10;;;1.73;;
77430;SDS011;66498;48.564;19.272;2024-03-29T08:23:24;1.80;;;1.60;;
77430;SDS011;66498;48.564;19.272;2024-03-29T08:25:50;1.73;;;1.60;;
77430;SDS011;66498;48.564;19.272;2024-03-29T08:28:17;1.60;;;1.48;;
77430;SDS011;66498;48.564;19.272;2024-03-29T08:30:46;1.60;;;1.50;;
77430;SDS011;66498;48.564;19.272;2024-03-29T08:33:11;1.60;;;1.50;;
77430;SDS011;66498;48.564;19.272;2024-03-29T08:35:37;3.05;;;1.50;;
77430;SDS011;66498;48.564;19.272;2024-03-29T08:38:04;2.08;;;1.80;;
77430;SDS011;66498;48.564;19.272;2024-03-29T08:40:29;1.63;;;1.50;;
77430;SDS011;66498;48.564;19.272;2024-03-29T08:42:57;2.28;;;1.40;;
77430;SDS011;66498;48.564;19.272;2024-03-29T08:45:22;1.65;;;1.50;;
77430;SDS011;66498;48.564;19.272;2024-03-29T08:47:48;1.60;;;1.40;;
77430;SDS011;66498;48.564;19.272;2024-03-29T08:50:14;2.83;;;2.08;;
77430;SDS011;66498;48.564;19.272;2024-03-29T08:52:39;2.40;;;1.65;;
77430;SDS011;66498;48.564;19.272;2024-03-29T08:55:05;1.63;;;1.52;;
77430;SDS011;66498;48.564;19.272;2024-03-29T08:57:31;1.40;;;1.30;;
77430;SDS011;66498;48.564;19.272;2024-03-29T08:59:57;1.33;;;1.20;;
77430;SDS011;66498;48.564;19.272;2024-03-29T09:02:22;1.40;;;1.20;;
77430;SDS011;66498;48.564;19.272;2024-03-29T09:04:48;2.53;;;1.42;;
77430;SDS011;66498;48.564;19.272;2024-03-29T09:07:13;2.08;;;1.25;;
77430;SDS011;66498;48.564;19.272;2024-03-29T09:09:39;2.53;;;1.67;;
77430;SDS011;66498;48.564;19.272;2024-03-29T09:12:06;1.70;;;1.60;;
77430;SDS011;66498;48.564;19.272;2024-03-29T09:14:34;3.88;;;1.58;;
77430;SDS011;66498;48.564;19.272;2024-03-29T09:17:00;2.00;;;1.50;;
77430;SDS011;66498;48.564;19.272;2024-03-29T09:19:26;2.20;;;1.55;;
77430;SDS011;66498;48.564;19.272;2024-03-29T09:21:52;1.92;;;1.70;;
77430;SDS011;66498;48.564;19.272;2024-03-29T09:24:17;2.33;;;1.42;;
77430;SDS011;66498;48.564;19.272;2024-03-29T09:26:43;2.08;;;1.70;;
77430;SDS011;66498;48.564;19.272;2024-03-29T09:29:08;2.35;;;1.35;;
77430;SDS011;66498;48.564;19.272;2024-03-29T09:31:34;2.05;;;1.20;;
77430;SDS011;66498;48.564;19.272;2024-03-29T09:34:00;1.17;;;0.90;;
77430;SDS011;66498;48.564;19.272;2024-03-29T09:36:25;1.23;;;0.93;;
77430;SDS011;66498;48.564;19.272;2024-03-29T09:38:50;2.70;;;1.50;;
77430;SDS011;66498;48.564;19.272;2024-03-29T09:41:17;4.32;;;2.20;;
77430;SDS011;66498;48.564;19.272;2024-03-29T09:43:44;4.30;;;2.70;;
77430;SDS011;66498;48.564;19.272;2024-03-29T09:46:11;1.48;;;1.10;;
77430;SDS011;66498;48.564;19.272;2024-03-29T09:48:38;1.42;;;0.90;;
77430;SDS011;66498;48.564;19.272;2024-03-29T09:51:08;1.48;;;1.00;;
77430;SDS011;66498;48.564;19.272;2024-03-29T09:53:35;3.80;;;0.90;;
77430;SDS011;66498;48.564;19.272;2024-03-29T09:56:05;0.85;;;0.70;;
77430;SDS011;66498;48.564;19.272;2024-03-29T09:58:33;0.75;;;0.68;;
77430;SDS011;66498;48.564;19.272;2024-03-29T10:01:00;0.82;;;0.82;;
77430;SDS011;66498;48.564;19.272;2024-03-29T10:03:28;1.50;;;0.70;;
77430;SDS011;66498;48.564;19.272;2024-03-29T10:05:58;1.20;;;1.00;;
77430;SDS011;66498;48.564;19.272;2024-03-29T10:08:28;1.23;;;1.00;;
77430;SDS011;66498;48.564;19.272;2024-03-29T10:10:55;1.40;;;0.75;;
77430;SDS011;66498;48.564;19.272;2024-03-29T10:13:21;1.40;;;0.88;;
77430;SDS011;66498;48.564;19.272;2024-03-29T10:15:51;1.63;;;1.20;;
77430;SDS011;66498;48.564;19.272;2024-03-29T10:18:18;1.23;;;0.80;;
77430;SDS011;66498;48.564;19.272;2024-03-29T10:20:45;1.67;;;1.20;;
77430;SDS011;66498;48.564;19.272;2024-03-29T10:23:11;1.58;;;1.02;;
77430;SDS011;66498;48.564;19.272;2024-03-29T10:25:37;0.95;;;0.80;;
77430;SDS011;66498;48.564;19.272;2024-03-29T10:28:02;0.80;;;0.80;;
77430;SDS011;66498;48.564;19.272;2024-03-29T10:30:28;1.48;;;0.88;;
77430;SDS011;66498;48.564;19.272;2024-03-29T10:32:55;2.10;;;0.80;;
77430;SDS011;66498;48.564;19.272;2024-03-29T10:35:22;1.95;;;0.75;;
77430;SDS011;66498;48.564;19.272;2024-03-29T10:37:47;1.15;;;1.02;;
77430;SDS011;66498;48.564;19.272;2024-03-29T10:40:13;1.02;;;0.80;;
77430;SDS011;66498;48.564;19.272;2024-03-29T10:42:42;0.80;;;0.70;;
77430;SDS011;66498;48.564;19.272;2024-03-29T10:45:09;1.17;;;1.08;;
77430;SDS011;66498;48.564;19.272;2024-03-29T10:47:35;3.15;;;1.27;;
77430;SDS011;66498;48.564;19.272;2024-03-29T10:50:01;2.65;;;1.77;;
77430;SDS011;66498;48.564;19.272;2024-03-29T10:52:30;5.32;;;2.30;;
77430;SDS011;66498;48.564;19.272;2024-03-29T10:54:56;4.32;;;2.20;;
77430;SDS011;66498;48.564;19.272;2024-03-29T10:57:25;1.65;;;0.90;;
77430;SDS011;66498;48.564;19.272;2024-03-29T11:02:42;2.40;;;1.40;;
77430;SDS011;66498;48.564;19.272;2024-03-29T11:05:21;1.30;;;1.00;;
77430;SDS011;66498;48.564;19.272;2024-03-29T11:07:47;1.05;;;0.80;;
77430;SDS011;66498;48.564;19.272;2024-03-29T11:10:15;3.30;;;0.80;;
77430;SDS011;66498;48.564;19.272;2024-03-29T11:15:56;1.35;;;1.10;;
77430;SDS011;66498;48.564;19.272;2024-03-29T11:18:21;1.40;;;1.08;;
77430;SDS011;66498;48.564;19.272;2024-03-29T11:20:49;2.05;;;1.20;;
77430;SDS011;66498;48.564;19.272;2024-03-29T11:23:16;1.45;;;0.90;;
77430;SDS011;66498;48.564;19.272;2024-03-29T11:25:51;0.90;;;0.90;;
77430;SDS011;66498;48.564;19.272;2024-03-29T11:28:37;1.42;;;1.02;;
77430;SDS011;66498;48.564;19.272;2024-03-29T11:31:03;1.90;;;1.20;;
77430;SDS011;66498;48.564;19.272;2024-03-29T11:33:32;1.23;;;1.13;;
77430;SDS011;66498;48.564;19.272;2024-03-29T11:36:11;1.23;;;0.90;;
77430;SDS011;66498;48.564;19.272;2024-03-29T11:38:37;2.05;;;1.20;;
77430;SDS011;66498;48.564;19.272;2024-03-29T11:41:12;1.88;;;0.90;;
77430;SDS011;66498;48.564;19.272;2024-03-29T11:43:40;2.60;;;1.20;;
77430;SDS011;66498;48.564;19.272;2024-03-29T11:46:07;1.35;;;0.90;;
77430;SDS011;66498;48.564;19.272;2024-03-29T11:48:34;2.63;;;1.15;;
77430;SDS011;66498;48.564;19.272;2024-03-29T11:51:00;2.45;;;1.20;;
77430;SDS011;66498;48.564;19.272;2024-03-29T11:53:28;3.47;;;1.30;;
77430;SDS011;66498;48.564;19.272;2024-03-29T11:55:55;2.33;;;0.90;;
77430;SDS011;66498;48.564;19.272;2024-03-29T11:58:22;2.78;;;0.93;;
77430;SDS011;66498;48.564;19.272;2024-03-29T12:00:49;2.40;;;1.00;;
77430;SDS011;66498;48.564;19.272;2024-03-29T12:03:16;3.10;;;0.90;;
77430;SDS011;66498;48.564;19.272;2024-03-29T12:05:43;3.10;;;1.00;;
77430;SDS011;66498;48.564;19.272;2024-03-29T12:08:09;2.15;;;0.90;;
77430;SDS011;66498;48.564;19.272;2024-03-29T12:10:35;2.60;;;1.20;;
77430;SDS011;66498;48.564;19.272;2024-03-29T12:13:02;1.58;;;0.90;;
77430;SDS011;66498;48.564;19.272;2024-03-29T12:15:32;2.40;;;1.10;;
77430;SDS011;66498;48.564;19.272;2024-03-29T12:17:58;2.90;;;1.00;;
77430;SDS011;66498;48.564;19.272;2024-03-29T12:20:26;2.53;;;1.13;;
77430;SDS011;66498;48.564;19.272;2024-03-29T12:22:54;3.40;;;1.05;;
77430;SDS011;66498;48.564;19.272;2024-03-29T12:25:19;3.33;;;1.20;;
77430;SDS011;66498;48.564;19.272;2024-03-29T12:27:46;1.38;;;0.93;;
77430;SDS011;66498;48.564;19.272;2024-03-29T12:30:12;3.90;;;1.48;;
77430;SDS011;66498;48.564;19.272;2024-03-29T12:32:39;1.35;;;0.80;;
77430;SDS011;66498;48.564;19.272;2024-03-29T12:35:11;2.45;;;1.10;;
77430;SDS011;66498;48.564;19.272;2024-03-29T12:37:38;3.40;;;1.00;;
77430;SDS011;66498;48.564;19.272;2024-03-29T12:40:05;1.42;;;0.98;;
77430;SDS011;66498;48.564;19.272;2024-03-29T12:42:40;3.25;;;1.08;;
77430;SDS011;66498;48.564;19.272;2024-03-29T12:45:06;8.20;;;1.42;;
77430;SDS011;66498;48.564;19.272;2024-03-29T12:47:33;1.48;;;1.10;;
77430;SDS011;66498;48.564;19.272;2024-03-29T12:50:00;3.47;;;1.17;;
77430;SDS011;66498;48.564;19.272;2024-03-29T12:52:25;2.47;;;1.20;;
77430;SDS011;66498;48.564;19.272;2024-03-29T12:54:52;3.95;;;1.13;;
77430;SDS011;66498;48.564;19.272;2024-03-29T12:57:17;2.95;;;1.40;;
77430;SDS011;66498;48.564;19.272;2024-03-29T12:59:43;3.25;;;1.13;;
77430;SDS011;66498;48.564;19.272;2024-03-29T13:02:09;4.28;;;1.20;;
77430;SDS011;66498;48.564;19.272;2024-03-29T13:04:35;1.58;;;1.13;;
77430;SDS011;66498;48.564;19.272;2024-03-29T13:07:00;2.95;;;1.00;;
77430;SDS011;66498;48.564;19.272;2024-03-29T13:09:26;3.35;;;1.23;;
77430;SDS011;66498;48.564;19.272;2024-03-29T13:11:51;2.72;;;1.10;;
77430;SDS011;66498;48.564;19.272;2024-03-29T13:14:17;2.85;;;1.10;;
77430;SDS011;66498;48.564;19.272;2024-03-29T13:16:42;2.80;;;1.15;;
77430;SDS011;66498;48.564;19.272;2024-03-29T13:19:07;2.97;;;1.38;;
77430;SDS011;66498;48.564;19.272;2024-03-29T13:21:33;3.08;;;1.20;;
77430;SDS011;66498;48.564;19.272;2024-03-29T13:23:58;3.20;;;1.45;;
77430;SDS011;66498;48.564;19.272;2024-03-29T13:26:23;3.92;;;1.10;;
77430;SDS011;66498;48.564;19.272;2024-03-29T13:28:49;2.78;;;1.10;;
77430;SDS011;66498;48.564;19.272;2024-03-29T13:31:14;2.38;;;1.23;;
77430;SDS011;66498;48.564;19.272;2024-03-29T13:33:40;3.28;;;1.20;;
77430;SDS011;66498;48.564;19.272;2024-03-29T13:36:05;4.00;;;1.38;;
77430;SDS011;66498;48.564;19.272;2024-03-29T13:38:31;7.00;;;1.40;;
77430;SDS011;66498;48.564;19.272;2024-03-29T13:40:56;2.85;;;1.25;;
77430;SDS011;66498;48.564;19.272;2024-03-29T13:43:22;2.03;;;1.17;;
77430;SDS011;66498;48.564;19.272;2024-03-29T13:45:48;1.90;;;1.38;;
77430;SDS011;66498;48.564;19.272;2024-03-29T13:48:15;4.35;;;1.60;;
77430;SDS011;66498;48.564;19.272;2024-03-29T13:50:41;4.85;;;2.30;;
77430;SDS011;66498;48.564;19.272;2024-03-29T13:53:06;3.30;;;1.55;;
77430;SDS011;66498;48.564;19.272;2024-03-29T13:55:31;2.58;;;1.50;;
77430;SDS011;66498;48.564;19.272;2024-03-29T13:57:57;5.32;;;1.20;;
77430;SDS011;66498;48.564;19.272;2024-03-29T14:00:24;1.63;;;1.20;;
77430;SDS011;66498;48.564;19.272;2024-03-29T14:02:49;4.95;;;1.40;;
77430;SDS011;66498;48.564;19.272;2024-03-29T14:05:14;3.42;;;1.25;;
77430;SDS011;66498;48.564;19.272;2024-03-29T14:07:40;2.35;;;1.13;;
77430;SDS011;66498;48.564;19.272;2024-03-29T14:10:06;2.65;;;1.40;;
77430;SDS011;66498;48.564;19.272;2024-03-29T14:12:32;3.78;;;1.35;;
77430;SDS011;66498;48.564;19.272;2024-03-29T14:14:59;1.92;;;1.30;;
77430;SDS011;66498;48.564;19.272;2024-03-29T14:17:25;3.03;;;1.42;;
77430;SDS011;66498;48.564;19.272;2024-03-29T14:19:52;2.72;;;1.67;;
77430;SDS011;66498;48.564;19.272;2024-03-29T14:22:17;2.85;;;1.65;;
77430;SDS011;66498;48.564;19.272;2024-03-29T14:24:45;4.40;;;1.60;;
77430;SDS011;66498;48.564;19.272;2024-03-29T14:27:10;2.75;;;1.60;;
77430;SDS011;66498;48.564;19.272;2024-03-29T14:29:37;3.42;;;1.52;;
77430;SDS011;66498;48.564;19.272;2024-03-29T14:32:03;4.00;;;1.70;;
77430;SDS011;66498;48.564;19.272;2024-03-29T14:34:29;2.60;;;1.48;;